sensor_id;sensor_type;location;lat;lon;timestamp;temperature;humidity
17992;DHT22;9121;50.926;5.340;2023-04-25T00:00:48;10.10;1.00
17992;DHT22;9121;50.926;5.340;2023-04-25T00:03:15;10.10;1.00
17992;DHT22;9121;50.926;5.340;2023-04-25T00:05:44;10.10;1.00
17992;DHT22;9121;50.926;5.340;2023-04-25T00:08:12;10.10;1.00
17992;DHT22;9121;50.926;5.340;2023-04-25T00:10:39;10.10;1.00
17992;DHT22;9121;50.926;5.340;2023-04-25T00:13:06;10.10;1.00
17992;DHT22;9121;50.926;5.340;2023-04-25T00:15:33;10.10;1.00
17992;DHT22;9121;50.926;5.340;2023-04-25T00:18:01;10.10;1.00
17992;DHT22;9121;50.926;5.340;2023-04-25T00:20:28;9.80;1.00
17992;DHT22;9121;50.926;5.340;2023-04-25T00:22:56;9.90;1.00
17992;DHT22;9121;50.926;5.340;2023-04-25T00:25:24;9.90;1.00
17992;DHT22;9121;50.926;5.340;2023-04-25T00:27:51;10.00;1.00
17992;DHT22;9121;50.926;5.340;2023-04-25T00:30:18;10.00;1.00
17992;DHT22;9121;50.926;5.340;2023-04-25T00:32:45;10.10;1.00
17992;DHT22;9121;50.926;5.340;2023-04-25T00:35:12;10.00;1.00
17992;DHT22;9121;50.926;5.340;2023-04-25T00:37:39;10.00;1.00
17992;DHT22;9121;50.926;5.340;2023-04-25T00:40:07;10.00;1.00
17992;DHT22;9121;50.926;5.340;2023-04-25T00:42:35;10.00;1.00
17992;DHT22;9121;50.926;5.340;2023-04-25T00:45:05;10.00;1.00
17992;DHT22;9121;50.926;5.340;2023-04-25T00:47:33;9.80;1.00
17992;DHT22;9121;50.926;5.340;2023-04-25T00:50:00;9.70;1.00
17992;DHT22;9121;50.926;5.340;2023-04-25T00:52:27;9.60;1.00
17992;DHT22;9121;50.926;5.340;2023-04-25T00:54:54;9.60;1.00
17992;DHT22;9121;50.926;5.340;2023-04-25T00:57:21;9.70;1.00
17992;DHT22;9121;50.926;5.340;2023-04-25T00:59:51;9.70;1.00
17992;DHT22;9121;50.926;5.340;2023-04-25T01:02:18;9.60;1.00
17992;DHT22;9121;50.926;5.340;2023-04-25T01:04:46;9.70;1.00
17992;DHT22;9121;50.926;5.340;2023-04-25T01:07:14;9.80;1.00
17992;DHT22;9121;50.926;5.340;2023-04-25T01:09:41;9.70;1.00
17992;DHT22;9121;50.926;5.340;2023-04-25T01:12:08;9.70;1.00
17992;DHT22;9121;50.926;5.340;2023-04-25T01:14:35;9.60;1.00
17992;DHT22;9121;50.926;5.340;2023-04-25T01:17:04;9.50;5.30
17992;DHT22;9121;50.926;5.340;2023-04-25T01:19:33;9.40;9.10
17992;DHT22;9121;50.926;5.340;2023-04-25T01:22:02;9.50;10.30
17992;DHT22;9121;50.926;5.340;2023-04-25T01:24:30;9.50;3.70
17992;DHT22;9121;50.926;5.340;2023-04-25T01:26:58;9.60;1.00
17992;DHT22;9121;50.926;5.340;2023-04-25T01:29:28;9.60;1.00
17992;DHT22;9121;50.926;5.340;2023-04-25T01:31:55;9.70;1.00
17992;DHT22;9121;50.926;5.340;2023-04-25T01:34:24;9.70;1.00
17992;DHT22;9121;50.926;5.340;2023-04-25T01:36:51;9.70;1.00
17992;DHT22;9121;50.926;5.340;2023-04-25T01:39:20;9.70;1.00
17992;DHT22;9121;50.926;5.340;2023-04-25T01:41:48;9.70;1.00
17992;DHT22;9121;50.926;5.340;2023-04-25T01:44:15;9.60;1.00
17992;DHT22;9121;50.926;5.340;2023-04-25T01:46:42;9.70;1.00
17992;DHT22;9121;50.926;5.340;2023-04-25T01:49:09;9.70;1.00
17992;DHT22;9121;50.926;5.340;2023-04-25T01:51:36;9.70;1.00
17992;DHT22;9121;50.926;5.340;2023-04-25T01:54:04;9.60;1.00
17992;DHT22;9121;50.926;5.340;2023-04-25T01:56:32;9.50;1.00
17992;DHT22;9121;50.926;5.340;2023-04-25T01:58:59;9.60;2.60
17992;DHT22;9121;50.926;5.340;2023-04-25T02:01:26;9.60;1.00
17992;DHT22;9121;50.926;5.340;2023-04-25T02:03:53;9.60;1.00
17992;DHT22;9121;50.926;5.340;2023-04-25T02:06:20;9.60;1.00
17992;DHT22;9121;50.926;5.340;2023-04-25T02:08:47;9.60;2.20
17992;DHT22;9121;50.926;5.340;2023-04-25T02:11:14;9.60;1.00
17992;DHT22;9121;50.926;5.340;2023-04-25T02:13:42;9.60;1.00
17992;DHT22;9121;50.926;5.340;2023-04-25T02:16:10;9.60;2.30
17992;DHT22;9121;50.926;5.340;2023-04-25T02:18:36;9.60;1.00
17992;DHT22;9121;50.926;5.340;2023-04-25T02:21:04;9.60;1.00
17992;DHT22;9121;50.926;5.340;2023-04-25T02:23:31;9.60;8.90
17992;DHT22;9121;50.926;5.340;2023-04-25T02:25:58;9.60;5.10
17992;DHT22;9121;50.926;5.340;2023-04-25T02:28:25;9.60;1.60
17992;DHT22;9121;50.926;5.340;2023-04-25T02:30:54;9.60;6.20
17992;DHT22;9121;50.926;5.340;2023-04-25T02:33:20;9.60;1.00
17992;DHT22;9121;50.926;5.340;2023-04-25T02:35:47;9.60;2.30
17992;DHT22;9121;50.926;5.340;2023-04-25T02:38:14;9.50;9.60
17992;DHT22;9121;50.926;5.340;2023-04-25T02:40:41;9.50;5.20
17992;DHT22;9121;50.926;5.340;2023-04-25T02:43:08;9.60;8.50
17992;DHT22;9121;50.926;5.340;2023-04-25T02:45:35;9.60;11.10
17992;DHT22;9121;50.926;5.340;2023-04-25T02:48:05;9.60;8.20
17992;DHT22;9121;50.926;5.340;2023-04-25T02:50:32;9.50;5.90
17992;DHT22;9121;50.926;5.340;2023-04-25T02:52:59;9.60;9.00
17992;DHT22;9121;50.926;5.340;2023-04-25T02:55:26;9.60;12.50
17992;DHT22;9121;50.926;5.340;2023-04-25T02:57:53;9.60;10.40
17992;DHT22;9121;50.926;5.340;2023-04-25T03:00:21;9.50;13.40
17992;DHT22;9121;50.926;5.340;2023-04-25T03:02:48;9.50;16.60
17992;DHT22;9121;50.926;5.340;2023-04-25T03:05:16;9.50;17.10
17992;DHT22;9121;50.926;5.340;2023-04-25T03:07:43;9.40;14.80
17992;DHT22;9121;50.926;5.340;2023-04-25T03:10:11;9.40;13.60
17992;DHT22;9121;50.926;5.340;2023-04-25T03:12:38;9.30;19.10
17992;DHT22;9121;50.926;5.340;2023-04-25T03:15:06;9.40;23.80
17992;DHT22;9121;50.926;5.340;2023-04-25T03:17:33;9.30;19.50
17992;DHT22;9121;50.926;5.340;2023-04-25T03:20:00;9.30;23.40
17992;DHT22;9121;50.926;5.340;2023-04-25T03:22:28;9.30;28.40
17992;DHT22;9121;50.926;5.340;2023-04-25T03:24:55;9.30;22.80
17992;DHT22;9121;50.926;5.340;2023-04-25T03:27:22;9.30;25.70
17992;DHT22;9121;50.926;5.340;2023-04-25T03:29:49;9.40;28.00
17992;DHT22;9121;50.926;5.340;2023-04-25T03:32:16;9.50;24.60
17992;DHT22;9121;50.926;5.340;2023-04-25T03:34:43;9.50;21.60
17992;DHT22;9121;50.926;5.340;2023-04-25T03:37:10;9.50;23.60
17992;DHT22;9121;50.926;5.340;2023-04-25T03:39:38;9.40;22.70
17992;DHT22;9121;50.926;5.340;2023-04-25T03:42:05;9.40;20.40
17992;DHT22;9121;50.926;5.340;2023-04-25T03:44:32;9.30;21.90
17992;DHT22;9121;50.926;5.340;2023-04-25T03:46:59;9.30;27.10
17992;DHT22;9121;50.926;5.340;2023-04-25T03:49:26;9.20;27.30
17992;DHT22;9121;50.926;5.340;2023-04-25T03:51:52;9.20;28.70
17992;DHT22;9121;50.926;5.340;2023-04-25T03:54:19;9.20;34.00
17992;DHT22;9121;50.926;5.340;2023-04-25T03:56:48;9.10;31.80
17992;DHT22;9121;50.926;5.340;2023-04-25T03:59:15;9.20;34.00
17992;DHT22;9121;50.926;5.340;2023-04-25T04:01:42;9.20;30.50
17992;DHT22;9121;50.926;5.340;2023-04-25T04:04:08;9.20;33.70
17992;DHT22;9121;50.926;5.340;2023-04-25T04:06:35;9.20;28.20
17992;DHT22;9121;50.926;5.340;2023-04-25T04:09:03;9.00;26.20
17992;DHT22;9121;50.926;5.340;2023-04-25T04:11:32;9.00;33.90
17992;DHT22;9121;50.926;5.340;2023-04-25T04:14:00;8.90;37.50
17992;DHT22;9121;50.926;5.340;2023-04-25T04:16:27;8.90;36.70
17992;DHT22;9121;50.926;5.340;2023-04-25T04:18:54;8.70;40.10
17992;DHT22;9121;50.926;5.340;2023-04-25T04:21:21;8.80;44.00
17992;DHT22;9121;50.926;5.340;2023-04-25T04:23:47;8.80;37.70
17992;DHT22;9121;50.926;5.340;2023-04-25T04:26:14;8.80;35.30
17992;DHT22;9121;50.926;5.340;2023-04-25T04:28:42;8.80;20.20
17992;DHT22;9121;50.926;5.340;2023-04-25T04:31:10;8.70;22.30
17992;DHT22;9121;50.926;5.340;2023-04-25T04:33:38;8.60;11.70
17992;DHT22;9121;50.926;5.340;2023-04-25T04:36:06;8.60;13.40
17992;DHT22;9121;50.926;5.340;2023-04-25T04:38:33;8.60;24.80
17992;DHT22;9121;50.926;5.340;2023-04-25T04:41:00;8.70;16.80
17992;DHT22;9121;50.926;5.340;2023-04-25T04:43:27;8.70;2.30
17992;DHT22;9121;50.926;5.340;2023-04-25T04:45:55;8.70;1.00
17992;DHT22;9121;50.926;5.340;2023-04-25T04:48:24;8.60;1.00
17992;DHT22;9121;50.926;5.340;2023-04-25T04:50:51;8.60;1.00
17992;DHT22;9121;50.926;5.340;2023-04-25T04:53:19;8.70;1.00
17992;DHT22;9121;50.926;5.340;2023-04-25T04:55:46;8.80;1.00
17992;DHT22;9121;50.926;5.340;2023-04-25T04:58:13;8.80;1.00
17992;DHT22;9121;50.926;5.340;2023-04-25T05:00:40;8.70;1.00
17992;DHT22;9121;50.926;5.340;2023-04-25T05:03:07;8.60;1.00
17992;DHT22;9121;50.926;5.340;2023-04-25T05:05:35;8.70;1.00
17992;DHT22;9121;50.926;5.340;2023-04-25T05:08:05;8.80;1.00
17992;DHT22;9121;50.926;5.340;2023-04-25T05:10:32;8.90;1.00
17992;DHT22;9121;50.926;5.340;2023-04-25T05:12:59;8.90;1.00
17992;DHT22;9121;50.926;5.340;2023-04-25T05:15:26;8.80;1.00
17992;DHT22;9121;50.926;5.340;2023-04-25T05:17:53;8.90;1.00
17992;DHT22;9121;50.926;5.340;2023-04-25T05:20:20;9.00;1.00
17992;DHT22;9121;50.926;5.340;2023-04-25T05:22:48;9.10;1.00
17992;DHT22;9121;50.926;5.340;2023-04-25T05:25:15;9.10;1.00
17992;DHT22;9121;50.926;5.340;2023-04-25T05:27:42;9.10;1.00
17992;DHT22;9121;50.926;5.340;2023-04-25T05:30:09;9.00;1.00
17992;DHT22;9121;50.926;5.340;2023-04-25T05:32:36;9.00;1.00
17992;DHT22;9121;50.926;5.340;2023-04-25T05:35:04;9.10;1.00
17992;DHT22;9121;50.926;5.340;2023-04-25T05:37:32;9.10;1.00
17992;DHT22;9121;50.926;5.340;2023-04-25T05:40:00;9.20;1.00
17992;DHT22;9121;50.926;5.340;2023-04-25T05:42:32;9.20;1.00
17992;DHT22;9121;50.926;5.340;2023-04-25T05:44:59;9.10;1.00
17992;DHT22;9121;50.926;5.340;2023-04-25T05:47:26;9.20;1.00
17992;DHT22;9121;50.926;5.340;2023-04-25T05:49:53;9.20;1.00
17992;DHT22;9121;50.926;5.340;2023-04-25T05:52:20;9.10;1.00
17992;DHT22;9121;50.926;5.340;2023-04-25T05:54:47;9.10;1.00
17992;DHT22;9121;50.926;5.340;2023-04-25T05:57:21;9.10;1.00
17992;DHT22;9121;50.926;5.340;2023-04-25T05:59:48;9.20;1.00
17992;DHT22;9121;50.926;5.340;2023-04-25T06:02:15;9.10;1.00
17992;DHT22;9121;50.926;5.340;2023-04-25T06:04:42;9.20;1.00
17992;DHT22;9121;50.926;5.340;2023-04-25T06:07:09;9.30;1.00
17992;DHT22;9121;50.926;5.340;2023-04-25T06:09:36;9.20;1.00
17992;DHT22;9121;50.926;5.340;2023-04-25T06:12:04;9.20;1.00
17992;DHT22;9121;50.926;5.340;2023-04-25T06:14:33;9.20;1.00
17992;DHT22;9121;50.926;5.340;2023-04-25T06:17:00;9.30;1.00
17992;DHT22;9121;50.926;5.340;2023-04-25T06:19:32;9.50;1.00
17992;DHT22;9121;50.926;5.340;2023-04-25T06:21:59;9.60;1.00
17992;DHT22;9121;50.926;5.340;2023-04-25T06:24:25;9.60;1.00
17992;DHT22;9121;50.926;5.340;2023-04-25T06:26:52;9.60;1.00
17992;DHT22;9121;50.926;5.340;2023-04-25T06:29:19;9.60;1.00
17992;DHT22;9121;50.926;5.340;2023-04-25T06:31:48;9.70;1.00
17992;DHT22;9121;50.926;5.340;2023-04-25T06:34:15;9.80;1.00
17992;DHT22;9121;50.926;5.340;2023-04-25T06:36:43;9.80;1.00
17992;DHT22;9121;50.926;5.340;2023-04-25T06:39:10;9.80;1.00
17992;DHT22;9121;50.926;5.340;2023-04-25T06:41:37;9.80;1.00
17992;DHT22;9121;50.926;5.340;2023-04-25T06:44:04;9.90;1.00
17992;DHT22;9121;50.926;5.340;2023-04-25T06:46:31;9.80;1.00
17992;DHT22;9121;50.926;5.340;2023-04-25T06:48:59;9.80;1.00
17992;DHT22;9121;50.926;5.340;2023-04-25T06:51:26;9.80;1.00
17992;DHT22;9121;50.926;5.340;2023-04-25T06:53:55;9.80;1.00
17992;DHT22;9121;50.926;5.340;2023-04-25T06:56:22;9.70;1.00
17992;DHT22;9121;50.926;5.340;2023-04-25T06:58:50;9.60;1.00
17992;DHT22;9121;50.926;5.340;2023-04-25T07:01:17;9.60;1.00
17992;DHT22;9121;50.926;5.340;2023-04-25T07:03:43;9.60;1.00
17992;DHT22;9121;50.926;5.340;2023-04-25T07:06:12;9.80;1.00
17992;DHT22;9121;50.926;5.340;2023-04-25T07:08:40;9.90;1.00
17992;DHT22;9121;50.926;5.340;2023-04-25T07:11:07;9.80;1.00
17992;DHT22;9121;50.926;5.340;2023-04-25T07:13:34;9.50;1.00
17992;DHT22;9121;50.926;5.340;2023-04-25T07:16:01;9.60;1.00
17992;DHT22;9121;50.926;5.340;2023-04-25T07:18:28;9.60;1.00
17992;DHT22;9121;50.926;5.340;2023-04-25T07:20:55;9.70;1.00
17992;DHT22;9121;50.926;5.340;2023-04-25T07:23:23;9.80;1.00
17992;DHT22;9121;50.926;5.340;2023-04-25T07:25:50;9.80;1.00
17992;DHT22;9121;50.926;5.340;2023-04-25T07:28:17;9.90;1.00
17992;DHT22;9121;50.926;5.340;2023-04-25T07:30:44;10.10;1.00
17992;DHT22;9121;50.926;5.340;2023-04-25T07:33:11;10.10;1.00
17992;DHT22;9121;50.926;5.340;2023-04-25T07:35:38;10.20;1.00
17992;DHT22;9121;50.926;5.340;2023-04-25T07:38:05;10.20;1.00
17992;DHT22;9121;50.926;5.340;2023-04-25T07:40:34;10.30;1.00
17992;DHT22;9121;50.926;5.340;2023-04-25T07:43:02;10.40;1.00
17992;DHT22;9121;50.926;5.340;2023-04-25T07:45:29;10.60;1.00
17992;DHT22;9121;50.926;5.340;2023-04-25T07:47:55;10.60;1.00
17992;DHT22;9121;50.926;5.340;2023-04-25T07:50:22;10.40;1.00
17992;DHT22;9121;50.926;5.340;2023-04-25T07:52:49;10.40;1.00
17992;DHT22;9121;50.926;5.340;2023-04-25T07:55:16;10.50;1.00
17992;DHT22;9121;50.926;5.340;2023-04-25T07:57:45;10.50;1.00
17992;DHT22;9121;50.926;5.340;2023-04-25T08:00:13;10.40;1.00
17992;DHT22;9121;50.926;5.340;2023-04-25T08:02:40;10.30;1.00
17992;DHT22;9121;50.926;5.340;2023-04-25T08:05:08;10.30;1.00
17992;DHT22;9121;50.926;5.340;2023-04-25T08:07:39;10.30;1.00
17992;DHT22;9121;50.926;5.340;2023-04-25T08:10:07;10.40;1.00
17992;DHT22;9121;50.926;5.340;2023-04-25T08:12:35;10.30;99.90
17992;DHT22;9121;50.926;5.340;2023-04-25T08:15:04;10.30;99.90
17992;DHT22;9121;50.926;5.340;2023-04-25T08:17:32;10.40;99.90
17992;DHT22;9121;50.926;5.340;2023-04-25T08:19:58;10.40;99.90
17992;DHT22;9121;50.926;5.340;2023-04-25T08:22:25;10.40;99.90
17992;DHT22;9121;50.926;5.340;2023-04-25T08:24:52;10.40;99.90
17992;DHT22;9121;50.926;5.340;2023-04-25T08:27:19;10.60;92.90
17992;DHT22;9121;50.926;5.340;2023-04-25T08:29:47;10.70;1.00
17992;DHT22;9121;50.926;5.340;2023-04-25T08:32:15;10.80;1.00
17992;DHT22;9121;50.926;5.340;2023-04-25T08:34:42;10.70;1.00
17992;DHT22;9121;50.926;5.340;2023-04-25T08:37:10;10.70;1.00
17992;DHT22;9121;50.926;5.340;2023-04-25T08:39:37;10.70;1.00
17992;DHT22;9121;50.926;5.340;2023-04-25T08:42:06;10.60;1.00
17992;DHT22;9121;50.926;5.340;2023-04-25T08:44:33;10.60;1.00
17992;DHT22;9121;50.926;5.340;2023-04-25T08:47:02;10.70;1.00
17992;DHT22;9121;50.926;5.340;2023-04-25T08:49:32;10.60;1.00
17992;DHT22;9121;50.926;5.340;2023-04-25T08:52:00;10.60;1.00
17992;DHT22;9121;50.926;5.340;2023-04-25T08:54:28;10.60;1.00
17992;DHT22;9121;50.926;5.340;2023-04-25T08:56:57;10.50;1.00
17992;DHT22;9121;50.926;5.340;2023-04-25T08:59:24;10.50;1.00
17992;DHT22;9121;50.926;5.340;2023-04-25T09:01:52;10.60;1.00
17992;DHT22;9121;50.926;5.340;2023-04-25T09:04:19;10.70;1.00
17992;DHT22;9121;50.926;5.340;2023-04-25T09:06:47;10.80;1.00
17992;DHT22;9121;50.926;5.340;2023-04-25T09:09:14;10.90;1.00
17992;DHT22;9121;50.926;5.340;2023-04-25T09:11:41;10.90;1.00
17992;DHT22;9121;50.926;5.340;2023-04-25T09:14:13;10.80;1.00
17992;DHT22;9121;50.926;5.340;2023-04-25T09:17:00;10.90;1.00
17992;DHT22;9121;50.926;5.340;2023-04-25T09:19:29;11.00;1.00
17992;DHT22;9121;50.926;5.340;2023-04-25T09:21:58;11.20;1.00
17992;DHT22;9121;50.926;5.340;2023-04-25T09:24:33;11.30;1.00
17992;DHT22;9121;50.926;5.340;2023-04-25T09:27:03;11.20;1.00
17992;DHT22;9121;50.926;5.340;2023-04-25T09:29:32;11.20;1.00
17992;DHT22;9121;50.926;5.340;2023-04-25T09:32:12;11.30;1.00
17992;DHT22;9121;50.926;5.340;2023-04-25T09:34:40;11.30;99.90
17992;DHT22;9121;50.926;5.340;2023-04-25T09:37:09;11.30;99.90
17992;DHT22;9121;50.926;5.340;2023-04-25T09:39:37;11.30;99.90
17992;DHT22;9121;50.926;5.340;2023-04-25T09:42:04;11.20;99.90
17992;DHT22;9121;50.926;5.340;2023-04-25T09:44:31;11.40;99.90
17992;DHT22;9121;50.926;5.340;2023-04-25T09:46:58;11.50;1.00
17992;DHT22;9121;50.926;5.340;2023-04-25T09:49:26;11.50;75.20
17992;DHT22;9121;50.926;5.340;2023-04-25T09:51:56;11.50;1.00
17992;DHT22;9121;50.926;5.340;2023-04-25T09:54:26;11.50;1.00
17992;DHT22;9121;50.926;5.340;2023-04-25T09:56:53;11.50;99.90
17992;DHT22;9121;50.926;5.340;2023-04-25T09:59:21;11.60;99.90
17992;DHT22;9121;50.926;5.340;2023-04-25T10:01:49;11.60;1.00
17992;DHT22;9121;50.926;5.340;2023-04-25T10:04:21;11.80;99.90
17992;DHT22;9121;50.926;5.340;2023-04-25T10:06:49;11.90;1.00
17992;DHT22;9121;50.926;5.340;2023-04-25T10:09:20;12.00;99.90
17992;DHT22;9121;50.926;5.340;2023-04-25T10:11:48;12.00;47.90
17992;DHT22;9121;50.926;5.340;2023-04-25T10:14:16;11.90;1.00
17992;DHT22;9121;50.926;5.340;2023-04-25T10:16:43;12.00;1.00
17992;DHT22;9121;50.926;5.340;2023-04-25T10:19:11;12.00;99.90
17992;DHT22;9121;50.926;5.340;2023-04-25T10:21:46;12.10;1.00
17992;DHT22;9121;50.926;5.340;2023-04-25T10:24:15;12.20;1.00
17992;DHT22;9121;50.926;5.340;2023-04-25T10:26:42;12.20;99.90
17992;DHT22;9121;50.926;5.340;2023-04-25T10:29:10;12.10;99.90
17992;DHT22;9121;50.926;5.340;2023-04-25T10:31:45;11.70;99.90
17992;DHT22;9121;50.926;5.340;2023-04-25T10:34:12;11.70;99.90
17992;DHT22;9121;50.926;5.340;2023-04-25T10:36:39;11.60;1.00
17992;DHT22;9121;50.926;5.340;2023-04-25T10:39:07;11.50;1.00
17992;DHT22;9121;50.926;5.340;2023-04-25T10:41:46;11.40;1.00
17992;DHT22;9121;50.926;5.340;2023-04-25T10:44:15;11.50;99.90
17992;DHT22;9121;50.926;5.340;2023-04-25T10:46:44;11.30;1.00
17992;DHT22;9121;50.926;5.340;2023-04-25T10:49:29;11.40;77.00
17992;DHT22;9121;50.926;5.340;2023-04-25T10:52:18;11.70;1.00
17992;DHT22;9121;50.926;5.340;2023-04-25T10:54:51;11.60;99.90
17992;DHT22;9121;50.926;5.340;2023-04-25T10:57:38;11.70;1.00
17992;DHT22;9121;50.926;5.340;2023-04-25T11:00:09;11.90;1.00
17992;DHT22;9121;50.926;5.340;2023-04-25T11:02:40;12.10;1.00
17992;DHT22;9121;50.926;5.340;2023-04-25T11:05:08;12.00;1.00
17992;DHT22;9121;50.926;5.340;2023-04-25T11:07:44;12.00;1.00
17992;DHT22;9121;50.926;5.340;2023-04-25T11:10:14;12.10;1.00
17992;DHT22;9121;50.926;5.340;2023-04-25T11:12:41;12.00;1.00
17992;DHT22;9121;50.926;5.340;2023-04-25T11:15:09;12.00;1.00
17992;DHT22;9121;50.926;5.340;2023-04-25T11:17:36;11.90;23.80
17992;DHT22;9121;50.926;5.340;2023-04-25T11:20:06;11.90;1.00
17992;DHT22;9121;50.926;5.340;2023-04-25T11:22:37;12.20;27.30
17992;DHT22;9121;50.926;5.340;2023-04-25T11:25:05;12.30;1.00
17992;DHT22;9121;50.926;5.340;2023-04-25T11:27:33;12.40;1.00
17992;DHT22;9121;50.926;5.340;2023-04-25T11:30:12;12.60;1.00
17992;DHT22;9121;50.926;5.340;2023-04-25T11:32:40;12.80;99.90
17992;DHT22;9121;50.926;5.340;2023-04-25T11:35:07;12.70;99.90
17992;DHT22;9121;50.926;5.340;2023-04-25T11:37:34;12.80;1.00
17992;DHT22;9121;50.926;5.340;2023-04-25T11:40:03;13.30;1.00
17992;DHT22;9121;50.926;5.340;2023-04-25T11:42:32;13.30;99.90
17992;DHT22;9121;50.926;5.340;2023-04-25T11:44:59;13.80;99.90
17992;DHT22;9121;50.926;5.340;2023-04-25T11:47:32;13.80;1.00
17992;DHT22;9121;50.926;5.340;2023-04-25T11:50:00;13.80;1.00
17992;DHT22;9121;50.926;5.340;2023-04-25T11:52:36;13.90;1.00
17992;DHT22;9121;50.926;5.340;2023-04-25T11:55:05;14.20;1.00
17992;DHT22;9121;50.926;5.340;2023-04-25T11:57:33;14.40;7.60
17992;DHT22;9121;50.926;5.340;2023-04-25T12:00:09;14.50;99.90
17992;DHT22;9121;50.926;5.340;2023-04-25T12:02:40;14.40;1.00
17992;DHT22;9121;50.926;5.340;2023-04-25T12:05:08;14.10;99.90
17992;DHT22;9121;50.926;5.340;2023-04-25T12:07:35;14.00;1.00
17992;DHT22;9121;50.926;5.340;2023-04-25T12:10:08;14.40;54.80
17992;DHT22;9121;50.926;5.340;2023-04-25T12:12:36;14.60;1.00
17992;DHT22;9121;50.926;5.340;2023-04-25T12:15:10;14.80;1.00
17992;DHT22;9121;50.926;5.340;2023-04-25T12:17:39;14.90;1.00
17992;DHT22;9121;50.926;5.340;2023-04-25T12:20:08;14.80;1.00
17992;DHT22;9121;50.926;5.340;2023-04-25T12:22:36;14.50;1.00
17992;DHT22;9121;50.926;5.340;2023-04-25T12:25:03;14.00;99.90
17992;DHT22;9121;50.926;5.340;2023-04-25T12:27:31;13.50;1.00
17992;DHT22;9121;50.926;5.340;2023-04-25T12:29:59;13.10;1.00
17992;DHT22;9121;50.926;5.340;2023-04-25T12:32:26;12.80;1.00
17992;DHT22;9121;50.926;5.340;2023-04-25T12:34:54;12.50;1.00
17992;DHT22;9121;50.926;5.340;2023-04-25T12:37:21;12.20;99.90
17992;DHT22;9121;50.926;5.340;2023-04-25T12:39:48;11.60;75.30
17992;DHT22;9121;50.926;5.340;2023-04-25T12:42:15;11.50;99.90
17992;DHT22;9121;50.926;5.340;2023-04-25T12:44:42;11.50;1.00
17992;DHT22;9121;50.926;5.340;2023-04-25T12:47:08;11.60;1.00
17992;DHT22;9121;50.926;5.340;2023-04-25T12:49:36;11.70;99.90
17992;DHT22;9121;50.926;5.340;2023-04-25T12:52:04;11.90;99.90
17992;DHT22;9121;50.926;5.340;2023-04-25T12:54:31;11.80;75.90
17992;DHT22;9121;50.926;5.340;2023-04-25T12:56:58;11.80;99.90
17992;DHT22;9121;50.926;5.340;2023-04-25T12:59:26;12.10;99.90
17992;DHT22;9121;50.926;5.340;2023-04-25T13:01:53;12.50;1.00
17992;DHT22;9121;50.926;5.340;2023-04-25T13:04:20;13.40;99.90
17992;DHT22;9121;50.926;5.340;2023-04-25T13:06:47;13.50;1.00
17992;DHT22;9121;50.926;5.340;2023-04-25T13:09:15;13.60;1.00
17992;DHT22;9121;50.926;5.340;2023-04-25T13:11:42;14.40;1.00
17992;DHT22;9121;50.926;5.340;2023-04-25T13:14:10;14.70;1.00
17992;DHT22;9121;50.926;5.340;2023-04-25T13:16:37;15.20;1.00
17992;DHT22;9121;50.926;5.340;2023-04-25T13:19:04;15.10;99.90
17992;DHT22;9121;50.926;5.340;2023-04-25T13:21:33;14.60;1.00
17992;DHT22;9121;50.926;5.340;2023-04-25T13:24:00;14.00;99.90
17992;DHT22;9121;50.926;5.340;2023-04-25T13:26:29;13.70;99.90
17992;DHT22;9121;50.926;5.340;2023-04-25T13:28:56;13.40;99.90
17992;DHT22;9121;50.926;5.340;2023-04-25T13:31:23;13.20;1.00
17992;DHT22;9121;50.926;5.340;2023-04-25T13:33:50;12.90;99.90
17992;DHT22;9121;50.926;5.340;2023-04-25T13:36:17;12.90;99.90
17992;DHT22;9121;50.926;5.340;2023-04-25T13:38:44;12.70;99.90
17992;DHT22;9121;50.926;5.340;2023-04-25T13:41:13;12.70;1.00
17992;DHT22;9121;50.926;5.340;2023-04-25T13:43:45;12.80;1.00
17992;DHT22;9121;50.926;5.340;2023-04-25T13:46:14;12.80;1.00
17992;DHT22;9121;50.926;5.340;2023-04-25T13:48:41;13.00;1.00
17992;DHT22;9121;50.926;5.340;2023-04-25T13:51:13;13.30;1.00
17992;DHT22;9121;50.926;5.340;2023-04-25T13:53:41;13.70;1.00
17992;DHT22;9121;50.926;5.340;2023-04-25T13:56:08;14.20;1.00
17992;DHT22;9121;50.926;5.340;2023-04-25T13:58:35;15.50;1.00
17992;DHT22;9121;50.926;5.340;2023-04-25T14:01:03;16.50;1.00
17992;DHT22;9121;50.926;5.340;2023-04-25T14:03:30;17.20;99.90
17992;DHT22;9121;50.926;5.340;2023-04-25T14:05:57;17.00;1.00
17992;DHT22;9121;50.926;5.340;2023-04-25T14:08:24;15.80;1.00
17992;DHT22;9121;50.926;5.340;2023-04-25T14:10:51;15.00;99.90
17992;DHT22;9121;50.926;5.340;2023-04-25T14:13:18;14.60;99.90
17992;DHT22;9121;50.926;5.340;2023-04-25T14:15:46;14.10;99.90
17992;DHT22;9121;50.926;5.340;2023-04-25T14:18:14;13.60;1.00
17992;DHT22;9121;50.926;5.340;2023-04-25T14:20:41;13.40;1.00
17992;DHT22;9121;50.926;5.340;2023-04-25T14:23:08;13.00;99.90
17992;DHT22;9121;50.926;5.340;2023-04-25T14:25:35;13.00;1.00
17992;DHT22;9121;50.926;5.340;2023-04-25T14:28:03;13.00;1.00
17992;DHT22;9121;50.926;5.340;2023-04-25T14:30:30;13.20;1.00
17992;DHT22;9121;50.926;5.340;2023-04-25T14:32:57;14.30;99.90
17992;DHT22;9121;50.926;5.340;2023-04-25T14:35:25;15.70;1.00
17992;DHT22;9121;50.926;5.340;2023-04-25T14:37:53;16.90;1.00
17992;DHT22;9121;50.926;5.340;2023-04-25T14:40:20;16.50;1.00
17992;DHT22;9121;50.926;5.340;2023-04-25T14:42:48;15.60;1.00
17992;DHT22;9121;50.926;5.340;2023-04-25T14:45:15;14.90;1.00
17992;DHT22;9121;50.926;5.340;2023-04-25T14:47:42;14.30;1.00
17992;DHT22;9121;50.926;5.340;2023-04-25T14:50:10;13.90;1.00
17992;DHT22;9121;50.926;5.340;2023-04-25T14:52:38;13.70;1.00
17992;DHT22;9121;50.926;5.340;2023-04-25T14:55:06;13.80;1.00
17992;DHT22;9121;50.926;5.340;2023-04-25T14:57:33;13.80;1.00
17992;DHT22;9121;50.926;5.340;2023-04-25T15:00:00;13.70;1.00
17992;DHT22;9121;50.926;5.340;2023-04-25T15:02:30;13.80;99.90
17992;DHT22;9121;50.926;5.340;2023-04-25T15:04:57;14.50;1.00
17992;DHT22;9121;50.926;5.340;2023-04-25T15:07:25;15.30;99.90
17992;DHT22;9121;50.926;5.340;2023-04-25T15:09:53;15.70;99.90
17992;DHT22;9121;50.926;5.340;2023-04-25T15:12:22;16.50;1.00
17992;DHT22;9121;50.926;5.340;2023-04-25T15:14:49;16.30;1.00
17992;DHT22;9121;50.926;5.340;2023-04-25T15:17:16;15.10;1.00
17992;DHT22;9121;50.926;5.340;2023-04-25T15:19:43;14.40;1.00
17992;DHT22;9121;50.926;5.340;2023-04-25T15:22:10;14.10;1.00
17992;DHT22;9121;50.926;5.340;2023-04-25T15:24:37;14.80;1.00
17992;DHT22;9121;50.926;5.340;2023-04-25T15:27:05;15.90;1.00
17992;DHT22;9121;50.926;5.340;2023-04-25T15:29:32;16.40;1.00
17992;DHT22;9121;50.926;5.340;2023-04-25T15:31:59;16.20;99.90
17992;DHT22;9121;50.926;5.340;2023-04-25T15:34:26;16.10;1.00
17992;DHT22;9121;50.926;5.340;2023-04-25T15:36:53;16.30;1.00
17992;DHT22;9121;50.926;5.340;2023-04-25T15:39:20;16.40;1.00
17992;DHT22;9121;50.926;5.340;2023-04-25T15:41:47;16.00;1.00
17992;DHT22;9121;50.926;5.340;2023-04-25T15:44:15;15.30;1.00
17992;DHT22;9121;50.926;5.340;2023-04-25T15:46:42;14.60;1.00
17992;DHT22;9121;50.926;5.340;2023-04-25T15:49:11;14.00;1.00
17992;DHT22;9121;50.926;5.340;2023-04-25T15:51:38;13.60;99.90
17992;DHT22;9121;50.926;5.340;2023-04-25T15:54:04;13.50;99.90
17992;DHT22;9121;50.926;5.340;2023-04-25T15:56:31;13.30;1.00
17992;DHT22;9121;50.926;5.340;2023-04-25T15:58:58;13.10;1.00
17992;DHT22;9121;50.926;5.340;2023-04-25T16:01:27;12.90;1.00
17992;DHT22;9121;50.926;5.340;2023-04-25T16:03:55;12.80;1.00
17992;DHT22;9121;50.926;5.340;2023-04-25T16:06:23;12.80;1.00
17992;DHT22;9121;50.926;5.340;2023-04-25T16:08:51;12.90;1.00